Time;durP1;ratioP1;P1;durP2;ratioP2;P2;SDS_P1;SDS_P2;PMS_P1;PMS_P2;Temp;Humidity;BMP_temperature;BMP_pressure;BME280_temperature;BME280_humidity;BME280_pressure;Samples;Min_cycle;Max_cycle;Signal;HPM_P1;HPM_P2
2023/06/21 00:00:30;;;;;;;;;;;;;;;;;;13010926;19;19922;-60
2023/06/21 00:05:09;;;;;;;;;;;;;;;;;;13011037;19;19938;-62
2023/06/21 00:09:26;;;;;;;;;;;;;;;;;;13011980;19;20272;-61
2023/06/21 00:13:45;;;;;;;;;;;;;;;;;;13011443;19;19915;-61
2023/06/21 00:18:03;;;;;;;;;;;;;;;;;;13009528;19;20258;-62
2023/06/21 00:22:24;;;;;;;;;;;;;;;;;;13010235;19;20119;-61
2023/06/21 00:26:42;;;;;;;;;;;;;;;;;;13010790;19;19934;-62
2023/06/21 00:30:59;;;;;;;;;;;;;;;;;;13010176;19;19922;-61
2023/06/21 00:35:18;;;;;;;;;;;;;;;;;;13009887;19;19914;-61
2023/06/21 00:39:37;;;;;;;;;;;;;;;;;;13008853;19;19911;-62
2023/06/21 00:43:54;;;;;;;;;;;;;;;;;;13009580;19;20281;-61
2023/06/21 00:48:13;;;;;;;;;;;;;;;;;;13009039;19;19911;-61
2023/06/21 00:52:31;;;;;;;;;;;;;;;;;;13009096;19;20345;-61
2023/06/21 00:56:50;;;;;;;;;;;;;;;;;;13006425;19;19910;-62
2023/06/21 01:01:09;;;;;;;;;;;;;;;;;;13005923;19;19922;-61
2023/06/21 01:05:30;;;;;;;;;;;;;;;;;;13011169;19;21092;-61
2023/06/21 01:10:10;;;;;;;;;;;;;;;;;;13008617;19;19937;-61
2023/06/21 01:14:37;;;;;;;;;;;;;;;;;;13007944;19;19926;-62
2023/06/21 01:18:55;;;;;;;;;;;;;;;;;;13006539;19;19915;-62
2023/06/21 01:23:51;;;;;;;;;;;;;;;;;;13006223;19;19911;-61
2023/06/21 01:28:36;;;;;;;;;;;;;;;;;;13006742;19;19911;-61
2023/06/21 01:32:55;;;;;;;;;;;;;;;;;;13005346;19;19930;-61
2023/06/21 01:37:12;;;;;;;;;;;;;;;;;;13004949;19;19911;-62
2023/06/21 01:41:31;;;;;;;;;;;;;;;;;;13005944;19;20238;-62
2023/06/21 01:45:49;;;;;;;;;;;;;;;;;;13006320;19;19911;-62
2023/06/21 01:50:10;;;;;;;;;;;;;;;;;;13003819;19;20291;-61
2023/06/21 01:54:28;;;;;;;;;;;;;;;;;;13004777;19;20347;-61
2023/06/21 01:58:46;;;;;;;;;;;;;;;;;;13004118;19;19935;-61
2023/06/21 02:03:06;;;;;;;;;;;;;;;;;;13004884;19;19911;-61
2023/06/21 02:07:24;;;;;;;;;;;;;;;;;;13001496;19;19925;-61
2023/06/21 02:11:42;;;;;;;;;;;;;;;;;;13003106;19;20295;-61
2023/06/21 02:16:00;;;;;;;;;;;;;;;;;;13004514;19;19907;-62
2023/06/21 02:20:21;;;;;;;;;;;;;;;;;;13003815;19;20330;-62
2023/06/21 02:24:40;;;;;;;;;;;;;;;;;;13004673;19;19915;-62
2023/06/21 02:28:57;;;;;;;;;;;;;;;;;;13003450;19;20323;-61
2023/06/21 02:33:15;;;;;;;;;;;;;;;;;;13003635;19;19911;-61
2023/06/21 02:37:33;;;;;;;;;;;;;;;;;;13003610;19;19952;-62
2023/06/21 02:41:52;;;;;;;;;;;;;;;;;;13003378;19;20263;-62
2023/06/21 02:46:11;;;;;;;;;;;;;;;;;;13002120;19;19918;-61
2023/06/21 02:50:28;;;;;;;;;;;;;;;;;;13002888;19;19923;-62
2023/06/21 02:54:47;;;;;;;;;;;;;;;;;;13002310;19;19932;-62
2023/06/21 02:59:05;;;;;;;;;;;;;;;;;;13001501;19;19947;-61
2023/06/21 03:03:22;;;;;;;;;;;;;;;;;;13002548;19;19938;-61
2023/06/21 03:07:44;;;;;;;;;;;;;;;;;;13002332;19;20331;-61
2023/06/21 03:12:07;;;;;;;;;;;;;;;;;;13001173;19;19911;-61
2023/06/21 03:16:26;;;;;;;;;;;;;;;;;;13003598;19;19914;-61
2023/06/21 03:20:43;;;;;;;;;;;;;;;;;;13013895;19;19917;-62
2023/06/21 03:25:01;;;;;;;;;;;;;;;;;;13014310;19;19915;-62
2023/06/21 03:29:19;;;;;;;;;;;;;;;;;;13013127;19;19906;-61
2023/06/21 03:33:37;;;;;;;;;;;;;;;;;;13013684;19;19910;-61
2023/06/21 03:37:55;;;;;;;;;;;;;;;;;;13013345;19;19915;-61
2023/06/21 03:42:13;;;;;;;;;;;;;;;;;;13012958;19;19910;-61
2023/06/21 03:46:32;;;;;;;;;;;;;;;;;;13013230;19;19915;-62
2023/06/21 03:50:49;;;;;;;;;;;;;;;;;;13012904;19;19922;-62
2023/06/21 03:55:09;;;;;;;;;;;;;;;;;;13011883;19;19918;-61
2023/06/21 03:59:26;;;;;;;;;;;;;;;;;;13012544;19;19922;-61
2023/06/21 04:03:44;;;;;;;;;;;;;;;;;;13012534;19;19922;-61
2023/06/21 04:08:03;;;;;;;;;;;;;;;;;;13011519;19;19934;-61
2023/06/21 04:12:21;;;;;;;;;;;;;;;;;;13011694;19;19911;-62
2023/06/21 04:16:39;;;;;;;;;;;;;;;;;;13011248;19;19911;-61
2023/06/21 04:20:56;;;;;;;;;;;;;;;;;;13011106;19;20247;-61
2023/06/21 04:25:14;;;;;;;;;;;;;;;;;;13010337;19;19911;-62
2023/06/21 04:29:40;;;;;;;;;;;;;;;;;;13008621;19;19915;-62
2023/06/21 04:33:58;;;;;;;;;;;;;;;;;;13010636;19;19919;-61
2023/06/21 04:38:15;;;;;;;;;;;;;;;;;;13009926;19;20270;-61
2023/06/21 04:42:34;;;;;;;;;;;;;;;;;;13010443;19;20260;-61
2023/06/21 04:46:52;;;;;;;;;;;;;;;;;;13009859;19;19935;-61
2023/06/21 04:51:15;;;;;;;;;;;;;;;;;;13008986;19;19930;-61
2023/06/21 04:55:33;;;;;;;;;;;;;;;;;;13009757;19;20267;-61
2023/06/21 04:59:50;;;;;;;;;;;;;;;;;;13006197;19;19927;-61
2023/06/21 05:04:08;;;;;;;;;;;;;;;;;;13008328;19;19911;-61
2023/06/21 05:08:26;;;;;;;;;;;;;;;;;;13009115;19;19922;-61
2023/06/21 05:12:44;;;;;;;;;;;;;;;;;;13009115;19;19914;-62
2023/06/21 05:17:02;;;;;;;;;;;;;;;;;;13007496;19;19919;-64
2023/06/21 05:21:20;;;;;;;;;;;;;;;;;;13006969;19;20377;-61
2023/06/21 05:25:37;;;;;;;;;;;;;;;;;;13008140;19;19994;-61
2023/06/21 05:29:55;;;;;;;;;;;;;;;;;;13007257;19;19922;-62
2023/06/21 05:34:13;;;;;;;;;;;;;;;;;;13007473;19;19951;-61
2023/06/21 05:38:31;;;;;;;;;;;;;;;;;;13006949;19;19915;-61
2023/06/21 05:42:49;;;;;;;;;;;;;;;;;;13007363;19;19922;-61
2023/06/21 05:47:07;;;;;;;;;;;;;;;;;;13006240;19;19914;-62
2023/06/21 05:51:25;;;;;;;;;;;;;;;;;;13006482;19;19942;-62
2023/06/21 05:55:44;;;;;;;;;;;;;;;;;;13005714;19;19925;-62
2023/06/21 06:00:08;;;;;;;;;;;;;;;;;;13005637;19;20029;-62
2023/06/21 06:04:27;;;;;;;;;;;;;;;;;;13006096;19;20330;-61
2023/06/21 06:08:44;;;;;;;;;;;;;;;;;;13003696;19;19929;-62
2023/06/21 06:13:02;;;;;;;;;;;;;;;;;;13004712;19;19931;-62
2023/06/21 06:17:21;;;;;;;;;;;;;;;;;;13005313;19;19911;-61
2023/06/21 06:21:40;;;;;;;;;;;;;;;;;;13004029;19;19918;-61
2023/06/21 06:25:59;;;;;;;;;;;;;;;;;;13004878;19;19935;-62
2023/06/21 06:30:17;;;;;;;;;;;;;;;;;;13004514;19;19910;-62
2023/06/21 06:34:34;;;;;;;;;;;;;;;;;;13004423;19;19911;-61
2023/06/21 06:38:54;;;;;;;;;;;;;;;;;;13003768;19;19919;-62
2023/06/21 06:43:14;;;;;;;;;;;;;;;;;;13003016;19;19907;-61
2023/06/21 06:47:32;;;;;;;;;;;;;;;;;;13003699;19;19911;-62
2023/06/21 06:51:50;;;;;;;;;;;;;;;;;;13001756;19;19925;-62
2023/06/21 06:56:09;;;;;;;;;;;;;;;;;;13002380;19;19907;-62
2023/06/21 07:00:27;;;;;;;;;;;;;;;;;;13002781;19;19945;-62
2023/06/21 07:04:45;;;;;;;;;;;;;;;;;;13002734;19;19926;-61
2023/06/21 07:09:04;;;;;;;;;;;;;;;;;;13001935;19;19915;-61
2023/06/21 07:13:23;;;;;;;;;;;;;;;;;;13002203;19;19950;-62
2023/06/21 07:17:40;;;;;;;;;;;;;;;;;;13002425;19;19926;-62
2023/06/21 07:21:58;;;;;;;;;;;;;;;;;;13001683;19;19930;-62
2023/06/21 07:26:16;;;;;;;;;;;;;;;;;;13001011;19;19907;-62
2023/06/21 07:30:33;;;;;;;;;;;;;;;;;;13001279;19;19924;-62
2023/06/21 07:34:53;;;;;;;;;;;;;;;;;;13001369;19;20002;-62
2023/06/21 07:39:11;;;;;;;;;;;;;;;;;;12999905;19;19935;-62
2023/06/21 07:43:29;;;;;;;;;;;;;;;;;;13001607;19;19918;-62
2023/06/21 07:47:48;;;;;;;;;;;;;;;;;;13000538;19;19907;-62
2023/06/21 07:52:06;;;;;;;;;;;;;;;;;;12999351;19;20342;-62
2023/06/21 07:56:24;;;;;;;;;;;;;;;;;;12999944;19;19915;-62
2023/06/21 08:00:42;;;;;;;;;;;;;;;;;;12999764;19;19915;-62
2023/06/21 08:04:59;;;;;;;;;;;;;;;;;;13005427;19;19910;-62
2023/06/21 08:09:17;;;;;;;;;;;;;;;;;;13011878;19;19930;-62
2023/06/21 08:13:35;;;;;;;;;;;;;;;;;;13011763;19;19911;-62
2023/06/21 08:17:52;;;;;;;;;;;;;;;;;;13010524;19;19926;-62
2023/06/21 08:22:10;;;;;;;;;;;;;;;;;;13010230;19;20007;-62
2023/06/21 08:26:29;;;;;;;;;;;;;;;;;;13010867;19;19907;-62
2023/06/21 08:30:46;;;;;;;;;;;;;;;;;;13009309;19;20254;-62
2023/06/21 08:35:06;;;;;;;;;;;;;;;;;;13010311;19;19934;-62
2023/06/21 08:39:23;;;;;;;;;;;;;;;;;;13009589;19;19918;-64
2023/06/21 08:43:41;;;;;;;;;;;;;;;;;;13010367;19;19922;-64
2023/06/21 08:48:03;;;;;;;;;;;;;;;;;;13010255;19;19911;-64
2023/06/21 08:52:24;;;;;;;;;;;;;;;;;;13010031;19;20354;-64
2023/06/21 08:56:51;;;;;;;;;;;;;;;;;;13007332;19;20354;-64
2023/06/21 09:01:10;;;;;;;;;;;;;;;;;;13006284;19;19921;-63
2023/06/21 09:06:03;;;;;;;;;;;;;;;;;;13007457;19;19930;-63
2023/06/21 09:10:21;;;;;;;;;;;;;;;;;;13008342;19;20264;-64
2023/06/21 09:14:39;;;;;;;;;;;;;;;;;;13006062;19;19923;-64
2023/06/21 09:18:57;;;;;;;;;;;;;;;;;;13006516;19;19914;-64
2023/06/21 09:23:15;;;;;;;;;;;;;;;;;;13006216;19;19911;-64
2023/06/21 09:27:34;;;;;;;;;;;;;;;;;;13006351;19;20334;-64
2023/06/21 09:31:51;;;;;;;;;;;;;;;;;;13007382;19;20238;-64
2023/06/21 09:36:10;;;;;;;;;;;;;;;;;;13006574;19;19942;-63
2023/06/21 09:40:39;;;;;;;;;;;;;;;;;;13006735;19;19915;-64
2023/06/21 09:44:57;;;;;;;;;;;;;;;;;;13005347;19;19938;-64
2023/06/21 09:49:16;;;;;;;;;;;;;;;;;;13006092;19;19978;-64
2023/06/21 09:53:35;;;;;;;;;;;;;;;;;;13006217;19;19939;-65
2023/06/21 09:57:53;;;;;;;;;;;;;;;;;;13005941;19;20023;-63
2023/06/21 10:02:12;;;;;;;;;;;;;;;;;;13002945;19;19918;-63
2023/06/21 10:06:30;;;;;;;;;;;;;;;;;;13005385;19;19910;-64
2023/06/21 10:10:49;;;;;;;;;;;;;;;;;;13005914;19;20239;-64
2023/06/21 10:15:09;;;;;;;;;;;;;;;;;;13005287;19;19926;-64
2023/06/21 10:19:31;;;;;;;;;;;;;;;;;;13004901;19;19918;-64
2023/06/21 10:23:49;;;;;;;;;;;;;;;;;;13005293;19;20258;-65
2023/06/21 10:28:08;;;;;;;;;;;;;;;;;;13001067;19;19922;-64
2023/06/21 10:32:26;;;;;;;;;;;;;;;;;;13003223;19;20330;-64
2023/06/21 10:36:48;;;;;;;;;;;;;;;;;;13003338;19;19910;-64
2023/06/21 10:41:06;;;;;;;;;;;;;;;;;;13001825;19;19950;-64
2023/06/21 10:45:27;;;;;;;;;;;;;;;;;;13002929;19;19914;-64
2023/06/21 10:49:48;;;;;;;;;;;;;;;;;;13003161;19;19929;-64
2023/06/21 10:54:06;;;;;;;;;;;;;;;;;;13003089;19;19914;-64
2023/06/21 10:58:25;;;;;;;;;;;;;;;;;;13002554;19;19942;-64
2023/06/21 11:02:44;;;;;;;;;;;;;;;;;;13002758;19;19929;-64
2023/06/21 11:07:01;;;;;;;;;;;;;;;;;;13000978;19;19915;-66
2023/06/21 11:11:30;;;;;;;;;;;;;;;;;;13001673;19;19911;-64
2023/06/21 11:15:48;;;;;;;;;;;;;;;;;;13002908;19;20326;-64
2023/06/21 11:20:23;;;;;;;;;;;;;;;;;;13000950;19;20331;-64
2023/06/21 11:24:58;;;;;;;;;;;;;;;;;;13002430;19;19922;-64
2023/06/21 11:29:17;;;;;;;;;;;;;;;;;;13000703;19;19911;-64
2023/06/21 11:33:57;;;;;;;;;;;;;;;;;;13001827;19;19915;-64
2023/06/21 11:38:15;;;;;;;;;;;;;;;;;;13004839;19;19911;-65
2023/06/21 11:42:36;;;;;;;;;;;;;;;;;;13012183;19;19907;-66
2023/06/21 11:47:22;;;;;;;;;;;;;;;;;;13014751;19;20286;-65
2023/06/21 11:52:03;;;;;;;;;;;;;;;;;;13013700;19;19922;-66
2023/06/21 11:56:28;;;;;;;;;;;;;;;;;;13011921;19;20254;-66
2023/06/21 12:00:47;;;;;;;;;;;;;;;;;;13012606;19;19907;-67
2023/06/21 12:05:05;;;;;;;;;;;;;;;;;;13012602;19;19922;-67
2023/06/21 12:09:24;;;;;;;;;;;;;;;;;;13012699;19;19918;-66
2023/06/21 12:13:43;;;;;;;;;;;;;;;;;;13011098;19;19915;-65
2023/06/21 12:18:05;;;;;;;;;;;;;;;;;;13012620;19;19918;-65
2023/06/21 12:22:23;;;;;;;;;;;;;;;;;;13008927;19;19918;-65
2023/06/21 12:26:50;;;;;;;;;;;;;;;;;;13009479;19;19921;-65
2023/06/21 12:31:16;;;;;;;;;;;;;;;;;;13009250;19;20251;-65
2023/06/21 12:35:37;;;;;;;;;;;;;;;;;;13009887;19;19926;-65
2023/06/21 12:39:55;;;;;;;;;;;;;;;;;;13009182;19;20317;-65
2023/06/21 12:44:24;;;;;;;;;;;;;;;;;;13008885;19;19919;-65
2023/06/21 12:48:48;;;;;;;;;;;;;;;;;;13008347;19;19926;-65
2023/06/21 12:53:06;;;;;;;;;;;;;;;;;;13006173;19;19938;-65
2023/06/21 12:57:31;;;;;;;;;;;;;;;;;;13008349;19;19926;-64
2023/06/21 13:01:49;;;;;;;;;;;;;;;;;;13008362;19;19938;-64
2023/06/21 13:06:06;;;;;;;;;;;;;;;;;;13007617;19;19911;-65
2023/06/21 13:10:24;;;;;;;;;;;;;;;;;;13008259;19;19922;-64
2023/06/21 13:14:43;;;;;;;;;;;;;;;;;;13008707;19;19915;-64
2023/06/21 13:19:00;;;;;;;;;;;;;;;;;;13008249;19;19922;-65
2023/06/21 13:23:18;;;;;;;;;;;;;;;;;;13007465;19;19915;-65
2023/06/21 13:27:36;;;;;;;;;;;;;;;;;;13006930;19;19915;-64
2023/06/21 13:31:54;;;;;;;;;;;;;;;;;;13007312;19;20238;-65
2023/06/21 13:36:11;;;;;;;;;;;;;;;;;;13003993;19;19982;-64
2023/06/21 13:40:29;;;;;;;;;;;;;;;;;;13007063;19;20334;-65
2023/06/21 13:44:47;;;;;;;;;;;;;;;;;;13006572;19;19914;-64
2023/06/21 13:49:05;;;;;;;;;;;;;;;;;;13005553;19;20358;-65
2023/06/21 13:53:25;;;;;;;;;;;;;;;;;;13006768;19;19911;-64
2023/06/21 13:57:44;;;;;;;;;;;;;;;;;;13006083;19;19934;-64
2023/06/21 14:02:01;;;;;;;;;;;;;;;;;;13004938;19;19922;-65
2023/06/21 14:06:20;;;;;;;;;;;;;;;;;;13005412;19;19923;-64
2023/06/21 14:10:37;;;;;;;;;;;;;;;;;;13005217;19;19919;-65
2023/06/21 14:14:56;;;;;;;;;;;;;;;;;;13005024;19;19915;-64
2023/06/21 14:19:14;;;;;;;;;;;;;;;;;;13003859;19;19907;-64
2023/06/21 14:23:32;;;;;;;;;;;;;;;;;;13004626;19;19914;-64
2023/06/21 14:27:50;;;;;;;;;;;;;;;;;;13003300;19;19911;-64
2023/06/21 14:32:07;;;;;;;;;;;;;;;;;;13002801;19;19934;-64
2023/06/21 14:36:28;;;;;;;;;;;;;;;;;;13002124;19;19915;-64
2023/06/21 14:40:46;;;;;;;;;;;;;;;;;;13002826;19;19907;-64
2023/06/21 14:45:04;;;;;;;;;;;;;;;;;;13003079;19;20116;-64
2023/06/21 14:49:23;;;;;;;;;;;;;;;;;;13002744;19;19926;-63
2023/06/21 14:53:42;;;;;;;;;;;;;;;;;;13002992;19;19922;-64
2023/06/21 14:57:59;;;;;;;;;;;;;;;;;;13002733;19;19943;-63
2023/06/21 15:02:18;;;;;;;;;;;;;;;;;;13001712;19;19930;-63
2023/06/21 15:06:38;;;;;;;;;;;;;;;;;;13001792;19;19929;-64
2023/06/21 15:10:58;;;;;;;;;;;;;;;;;;13002033;19;19918;-64
2023/06/21 15:15:16;;;;;;;;;;;;;;;;;;13010766;19;19943;-64
2023/06/21 15:19:34;;;;;;;;;;;;;;;;;;13014142;19;19918;-63
2023/06/21 15:23:53;;;;;;;;;;;;;;;;;;13012706;19;19915;-64
2023/06/21 15:28:11;;;;;;;;;;;;;;;;;;13009253;19;19919;-64
2023/06/21 15:32:29;;;;;;;;;;;;;;;;;;13013051;19;19922;-64
2023/06/21 15:36:46;;;;;;;;;;;;;;;;;;13014102;19;20238;-64
2023/06/21 15:41:04;;;;;;;;;;;;;;;;;;13011455;19;19919;-64
2023/06/21 15:45:22;;;;;;;;;;;;;;;;;;13010424;19;20317;-64
2023/06/21 15:49:40;;;;;;;;;;;;;;;;;;13013084;19;19926;-64
2023/06/21 15:53:58;;;;;;;;;;;;;;;;;;13012249;19;20326;-64
2023/06/21 15:58:17;;;;;;;;;;;;;;;;;;13012286;19;19921;-64
2023/06/21 16:02:35;;;;;;;;;;;;;;;;;;13011697;19;20247;-64
2023/06/21 16:06:54;;;;;;;;;;;;;;;;;;13012262;19;19923;-64
2023/06/21 16:11:11;;;;;;;;;;;;;;;;;;13011167;19;20203;-64
2023/06/21 16:15:29;;;;;;;;;;;;;;;;;;13011351;19;20263;-64
2023/06/21 16:19:47;;;;;;;;;;;;;;;;;;13011000;19;20319;-64
2023/06/21 16:24:05;;;;;;;;;;;;;;;;;;13006874;19;20243;-65
2023/06/21 16:28:24;;;;;;;;;;;;;;;;;;13009645;19;20015;-64
2023/06/21 16:32:42;;;;;;;;;;;;;;;;;;13010878;19;19914;-64
2023/06/21 16:37:00;;;;;;;;;;;;;;;;;;13010401;19;19915;-64
2023/06/21 16:41:18;;;;;;;;;;;;;;;;;;13009278;19;19915;-63
2023/06/21 16:45:37;;;;;;;;;;;;;;;;;;13009855;19;19917;-63
2023/06/21 16:49:55;;;;;;;;;;;;;;;;;;13009707;19;19921;-63
2023/06/21 16:54:13;;;;;;;;;;;;;;;;;;13007275;19;19946;-63
2023/06/21 16:58:33;;;;;;;;;;;;;;;;;;13009615;19;19910;-63
2023/06/21 17:02:52;;;;;;;;;;;;;;;;;;13008149;19;19922;-62
2023/06/21 17:07:11;;;;;;;;;;;;;;;;;;13007560;19;19914;-64
2023/06/21 17:11:29;;;;;;;;;;;;;;;;;;13007926;19;20231;-62
2023/06/21 17:15:46;;;;;;;;;;;;;;;;;;13007948;19;19926;-63
2023/06/21 17:20:06;;;;;;;;;;;;;;;;;;13006691;19;19907;-63
2023/06/21 17:24:23;;;;;;;;;;;;;;;;;;13006782;19;20353;-63
2023/06/21 17:28:41;;;;;;;;;;;;;;;;;;13006050;19;19911;-63
2023/06/21 17:32:59;;;;;;;;;;;;;;;;;;13006370;19;19911;-63
2023/06/21 17:37:18;;;;;;;;;;;;;;;;;;13005449;19;19918;-63
2023/06/21 17:41:35;;;;;;;;;;;;;;;;;;13005903;19;20278;-63
2023/06/21 17:45:54;;;;;;;;;;;;;;;;;;13006866;19;19935;-64
2023/06/21 17:50:12;;;;;;;;;;;;;;;;;;13005362;19;19918;-63
2023/06/21 17:54:30;;;;;;;;;;;;;;;;;;13006168;19;19910;-63
2023/06/21 17:58:48;;;;;;;;;;;;;;;;;;13005855;19;20345;-64
2023/06/21 18:03:06;;;;;;;;;;;;;;;;;;13004482;19;19911;-64
2023/06/21 18:07:27;;;;;;;;;;;;;;;;;;13005239;19;19918;-64
2023/06/21 18:11:45;;;;;;;;;;;;;;;;;;13005281;19;20013;-63
2023/06/21 18:16:02;;;;;;;;;;;;;;;;;;13004567;19;19918;-64
2023/06/21 18:20:20;;;;;;;;;;;;;;;;;;13004905;19;19930;-64
2023/06/21 18:24:39;;;;;;;;;;;;;;;;;;13003419;19;20251;-64
2023/06/21 18:28:57;;;;;;;;;;;;;;;;;;13003085;19;19915;-64
2023/06/21 18:33:16;;;;;;;;;;;;;;;;;;13003296;19;19911;-63
2023/06/21 18:37:34;;;;;;;;;;;;;;;;;;13003364;19;20249;-64
2023/06/21 18:41:53;;;;;;;;;;;;;;;;;;13002499;19;19907;-62
2023/06/21 18:46:11;;;;;;;;;;;;;;;;;;13002483;19;19916;-63
2023/06/21 18:50:29;;;;;;;;;;;;;;;;;;13001612;19;20323;-62
2023/06/21 18:54:48;;;;;;;;;;;;;;;;;;13003002;19;20003;-60
2023/06/21 18:59:08;;;;;;;;;;;;;;;;;;13001498;19;19974;-60
2023/06/21 19:03:29;;;;;;;;;;;;;;;;;;13002145;19;19911;-61
2023/06/21 19:07:48;;;;;;;;;;;;;;;;;;13002502;19;19922;-61
2023/06/21 19:12:07;;;;;;;;;;;;;;;;;;13001311;19;19932;-62
2023/06/21 19:16:23;;;;;;;;;;;;;;;;;;12999644;19;19957;-61
2023/06/21 19:20:42;;;;;;;;;;;;;;;;;;13001826;19;19926;-60
2023/06/21 19:25:01;;;;;;;;;;;;;;;;;;13001318;19;20015;-61
2023/06/21 19:29:19;;;;;;;;;;;;;;;;;;12999992;19;19914;-61
2023/06/21 19:33:37;;;;;;;;;;;;;;;;;;13001200;19;19938;-61
2023/06/21 19:37:55;;;;;;;;;;;;;;;;;;13001165;19;20334;-62
2023/06/21 19:42:13;;;;;;;;;;;;;;;;;;12998907;19;19914;-62
2023/06/21 19:46:34;;;;;;;;;;;;;;;;;;13000432;19;19911;-60
2023/06/21 19:50:51;;;;;;;;;;;;;;;;;;13000842;19;19930;-61
2023/06/21 19:55:09;;;;;;;;;;;;;;;;;;12999116;19;20330;-61
2023/06/21 19:59:29;;;;;;;;;;;;;;;;;;13003960;19;19979;-61
2023/06/21 20:03:47;;;;;;;;;;;;;;;;;;13010995;19;19907;-60
2023/06/21 20:08:04;;;;;;;;;;;;;;;;;;13010783;19;20320;-61
2023/06/21 20:12:24;;;;;;;;;;;;;;;;;;13011095;19;19926;-61
2023/06/21 20:16:43;;;;;;;;;;;;;;;;;;13011130;19;19934;-61
2023/06/21 20:21:01;;;;;;;;;;;;;;;;;;13010565;19;19915;-64
2023/06/21 20:25:22;;;;;;;;;;;;;;;;;;13009920;19;19951;-61
2023/06/21 20:29:41;;;;;;;;;;;;;;;;;;13009796;19;19907;-61
2023/06/21 20:33:59;;;;;;;;;;;;;;;;;;13010287;19;19915;-62
2023/06/21 20:38:19;;;;;;;;;;;;;;;;;;13009635;19;19919;-62
2023/06/21 20:42:37;;;;;;;;;;;;;;;;;;13009139;19;19922;-62
2023/06/21 20:46:56;;;;;;;;;;;;;;;;;;13010324;19;19930;-62
2023/06/21 20:51:15;;;;;;;;;;;;;;;;;;13008327;19;19919;-61
2023/06/21 20:55:35;;;;;;;;;;;;;;;;;;13009411;19;20331;-62
2023/06/21 20:59:54;;;;;;;;;;;;;;;;;;13008946;19;19927;-62
2023/06/21 21:04:12;;;;;;;;;;;;;;;;;;13007383;19;19911;-61
2023/06/21 21:08:29;;;;;;;;;;;;;;;;;;13007893;19;19915;-62
2023/06/21 21:12:48;;;;;;;;;;;;;;;;;;13006802;19;19907;-62
2023/06/21 21:17:06;;;;;;;;;;;;;;;;;;13006981;19;19934;-62
2023/06/21 21:21:24;;;;;;;;;;;;;;;;;;13007849;19;19922;-62
2023/06/21 21:25:42;;;;;;;;;;;;;;;;;;13008297;19;19911;-62
2023/06/21 21:29:59;;;;;;;;;;;;;;;;;;13006517;19;19925;-61
2023/06/21 21:34:17;;;;;;;;;;;;;;;;;;13006228;19;20309;-61
2023/06/21 21:38:34;;;;;;;;;;;;;;;;;;13007225;19;20323;-62
2023/06/21 21:42:53;;;;;;;;;;;;;;;;;;13006419;19;19922;-62
2023/06/21 21:47:11;;;;;;;;;;;;;;;;;;13005714;19;19922;-62
2023/06/21 21:51:29;;;;;;;;;;;;;;;;;;13005393;19;19918;-62
2023/06/21 21:55:49;;;;;;;;;;;;;;;;;;13005549;19;20254;-62
2023/06/21 22:00:10;;;;;;;;;;;;;;;;;;13003136;19;19915;-62
2023/06/21 22:04:28;;;;;;;;;;;;;;;;;;13005064;19;19911;-62
2023/06/21 22:08:47;;;;;;;;;;;;;;;;;;13004549;19;20334;-62
2023/06/21 22:13:09;;;;;;;;;;;;;;;;;;13003812;19;20375;-62
2023/06/21 22:17:29;;;;;;;;;;;;;;;;;;13004832;19;20341;-62
2023/06/21 22:21:52;;;;;;;;;;;;;;;;;;13000207;19;19922;-61
2023/06/21 22:26:10;;;;;;;;;;;;;;;;;;13001291;19;20330;-62
2023/06/21 22:30:27;;;;;;;;;;;;;;;;;;13003839;19;19910;-61
2023/06/21 22:34:52;;;;;;;;;;;;;;;;;;13004040;19;19939;-61
2023/06/21 22:39:10;;;;;;;;;;;;;;;;;;13002363;19;19946;-62
2023/06/21 22:43:28;;;;;;;;;;;;;;;;;;13003969;19;19958;-62
2023/06/21 22:47:47;;;;;;;;;;;;;;;;;;13002631;19;19942;-62
2023/06/21 22:52:06;;;;;;;;;;;;;;;;;;13002005;19;20315;-61
2023/06/21 22:56:24;;;;;;;;;;;;;;;;;;13002089;19;19922;-62
2023/06/21 23:00:43;;;;;;;;;;;;;;;;;;13001905;19;19914;-62
2023/06/21 23:05:01;;;;;;;;;;;;;;;;;;13001853;19;19910;-61
2023/06/21 23:09:19;;;;;;;;;;;;;;;;;;13001007;19;19947;-61
2023/06/21 23:13:37;;;;;;;;;;;;;;;;;;13000322;19;19918;-62
2023/06/21 23:18:00;;;;;;;;;;;;;;;;;;13001302;19;19911;-62
2023/06/21 23:22:18;;;;;;;;;;;;;;;;;;13001052;19;19911;-62
2023/06/21 23:26:38;;;;;;;;;;;;;;;;;;12999810;19;19921;-61
2023/06/21 23:30:56;;;;;;;;;;;;;;;;;;12998190;19;19982;-62
2023/06/21 23:35:16;;;;;;;;;;;;;;;;;;13006673;19;19915;-62
2023/06/21 23:39:34;;;;;;;;;;;;;;;;;;13013797;19;19911;-61
2023/06/21 23:43:58;;;;;;;;;;;;;;;;;;13012649;19;19934;-61
2023/06/21 23:48:16;;;;;;;;;;;;;;;;;;13011710;19;19915;-61
2023/06/21 23:52:34;;;;;;;;;;;;;;;;;;13011956;19;19934;-62
2023/06/21 23:56:53;;;;;;;;;;;;;;;;;;13011968;19;20043;-62
